Williams Lake Airport
CYWL : now visible

Airfield :











YOU CAN JOIN US ON...

 
LOGIN :

Register | Disclaimer

   EN    FR    IT 

 









Legend :    VFR   Marginal VFR   IFR   Intensive IFR   Very Intensive IFR
Visi :
Ceiling :
>= 8 km
>= 3000ft
5 to 8 km
1000 to 3000 ft
1500m to 5 km
500 to 1000 ft
800 to 1500m
200 to 500 ft
< 800m
< 200 ft
Symbols :   Thunderstorms  Fog  Heavy snow  Heavy precipitations  Wind > 20 kt






- Airport Elevation : 3085 ft
- IATA code : YWL


CYWL - Williams Lake

CURRENT METAR :
  • 160600Z 33006KT 15SM BKN080 BKN180 12/08 A3002 RMK AC5AC2 SLP172 DENSITY ALT 3400FT

EXPIRED METARs :
  • 160500Z 33008KT 15SM SCT080 BKN180 13/08 A3002 RMK AC4AC3 SLP174 DENSITY ALT 3500FT
  • 160400Z 34009KT 15SM SCT090 BKN180 14/07 A3002 RMK AC4AC2 SLP172 DENSITY ALT 3600FT

TAF TAF CYWL
Valid from the 16 at 01:00 until the 16 at 13:00 UTC


160039Z 1601/1613 36005KT P6SM BKN100 BKN200 RMK NXT FCST BY 160700Z
CZVR FIR / North America



MET'MAP, your aeronautical weather chart ! - Copyright ORBIFLY December 2007 - Disclaimer

ORBIFLY MET'MAP TEAM :

Programming & Development : Alexandra Zaïnal
Concept & original design : Baudouin d'Aumeries
Assistance for programming : Marc-Olivier Méhu
Technical & hardware support : Manuel Goepfert

Contact : metmap@orbifly.com




SOURCES & CREDITS :

   NOAA       Earth
Advisory